Time;durP1;ratioP1;P1;durP2;ratioP2;P2;SDS_P1;SDS_P2;PMS_P1;PMS_P2;Temp;Humidity;BMP_temperature;BMP_pressure;BME280_temperature;BME280_humidity;BME280_pressure;Samples;Min_cycle;Max_cycle;Signal;HPM_P1;HPM_P2
2021/07/17 00:02:03;;;;;;;7.28;3.55;;;;;;;20.04;100.00;94223.84;10571117;28;20051;-76
2021/07/17 00:07:03;;;;;;;4.15;3.08;;;;;;;19.96;100.00;94222.84;10570611;28;20080;-76
2021/07/17 00:12:04;;;;;;;6.15;3.78;;;;;;;19.82;100.00;94216.97;10570168;28;20073;-76
2021/07/17 00:17:04;;;;;;;7.72;4.30;;;;;;;19.54;100.00;94222.34;10569228;28;20463;-76
2021/07/17 00:22:05;;;;;;;8.53;3.87;;;;;;;19.58;100.00;94221.31;10568962;28;20023;-76
2021/07/17 00:27:05;;;;;;;8.27;3.67;;;;;;;19.61;100.00;94217.09;10570044;28;20055;-76
2021/07/17 00:32:06;;;;;;;8.20;3.57;;;;;;;19.74;100.00;94220.59;10568580;28;20077;-76
2021/07/17 00:37:06;;;;;;;5.97;3.35;;;;;;;19.74;100.00;94217.88;10570128;28;20334;-76
2021/07/17 00:42:07;;;;;;;4.73;3.20;;;;;;;19.48;100.00;94219.06;10569410;28;20020;-76
2021/07/17 00:47:08;;;;;;;9.77;3.85;;;;;;;19.39;100.00;94230.06;10570532;28;20028;-76
2021/07/17 00:52:09;;;;;;;7.05;3.45;;;;;;;19.38;100.00;94224.97;10568818;28;20097;-76
2021/07/17 00:57:10;;;;;;;4.95;3.22;;;;;;;19.46;100.00;94219.38;10568787;28;20020;-75
2021/07/17 01:02:12;;;;;;;4.55;3.58;;;;;;;19.57;100.00;94213.47;10568857;28;20087;-76
2021/07/17 01:07:12;;;;;;;4.15;3.20;;;;;;;19.57;100.00;94206.09;10569279;28;20019;-76
2021/07/17 01:12:13;;;;;;;9.10;3.90;;;;;;;19.67;100.00;94210.28;10567976;28;20508;-76
2021/07/17 01:17:14;;;;;;;5.50;3.63;;;;;;;19.74;100.00;94202.28;10568236;28;20024;-76
2021/07/17 01:22:14;;;;;;;5.47;3.38;;;;;;;19.84;100.00;94197.53;10550400;28;20269;-76
2021/07/17 01:27:18;;;;;;;10.27;3.47;;;;;;;19.87;100.00;94186.75;10567284;28;20122;-76
2021/07/17 01:32:20;;;;;;;11.10;3.80;;;;;;;19.85;100.00;94191.75;10566696;28;20034;-76
2021/07/17 01:37:20;;;;;;;5.15;3.55;;;;;;;19.97;100.00;94186.25;10549259;28;20034;-76
2021/07/17 01:42:21;;;;;;;10.60;3.50;;;;;;;20.00;100.00;94184.78;10566766;28;20027;-76
2021/07/17 01:47:21;;;;;;;7.57;3.55;;;;;;;20.01;100.00;94185.56;10567187;28;20111;-76
2021/07/17 01:52:21;;;;;;;5.15;3.47;;;;;;;19.94;100.00;94183.41;10566896;28;20035;-76
2021/07/17 01:57:22;;;;;;;7.27;4.00;;;;;;;19.88;100.00;94174.69;10566561;28;20110;-76
2021/07/17 02:02:22;;;;;;;6.00;4.00;;;;;;;19.72;100.00;94174.59;10566501;28;20047;-76
2021/07/17 02:07:23;;;;;;;5.78;3.08;;;;;;;19.59;100.00;94173.84;10566861;28;20393;-76
2021/07/17 02:12:24;;;;;;;5.50;3.20;;;;;;;19.42;100.00;94166.72;10566210;28;20020;-76
2021/07/17 02:17:25;;;;;;;9.40;2.88;;;;;;;19.22;100.00;94168.44;10566133;28;20028;-76
2021/07/17 02:22:25;;;;;;;9.63;3.17;;;;;;;19.00;100.00;94163.47;10566719;28;20015;-76
2021/07/17 02:27:25;;;;;;;9.10;2.73;;;;;;;18.88;100.00;94158.78;10565630;28;20093;-75
2021/07/17 02:32:26;;;;;;;5.37;3.13;;;;;;;18.90;100.00;94156.53;10566041;28;20024;-75
2021/07/17 02:37:26;;;;;;;6.17;2.80;;;;;;;18.90;100.00;94154.59;10566461;28;20030;-76
2021/07/17 02:42:27;;;;;;;12.17;2.80;;;;;;;19.02;100.00;94153.00;10565434;28;20301;-75
2021/07/17 02:47:27;;;;;;;9.73;3.60;;;;;;;19.04;100.00;94156.19;10565366;28;20380;-75
2021/07/17 02:52:27;;;;;;;4.85;2.55;;;;;;;19.05;100.00;94149.63;10564187;28;20081;-76
2021/07/17 02:57:28;;;;;;;3.50;2.43;;;;;;;19.03;100.00;94151.88;10569493;28;20033;-76
2021/07/17 03:02:28;;;;;;;10.30;4.50;;;;;;;18.95;100.00;94151.66;10573437;28;20024;-76
2021/07/17 03:07:28;;;;;;;5.50;2.90;;;;;;;18.90;100.00;94153.81;10572963;28;20311;-76
2021/07/17 03:12:29;;;;;;;4.63;3.33;;;;;;;18.68;100.00;94152.28;10573187;28;20092;-76
2021/07/17 03:17:29;;;;;;;10.57;2.93;;;;;;;18.69;100.00;94156.63;10572161;28;20028;-76
2021/07/17 03:22:29;;;;;;;10.93;3.30;;;;;;;18.73;100.00;94160.25;10572341;28;20024;-76
2021/07/17 03:27:30;;;;;;;8.17;3.07;;;;;;;18.72;100.00;94151.28;10572246;28;20081;-75
2021/07/17 03:32:30;;;;;;;5.90;3.43;;;;;;;18.66;100.00;94157.28;10571714;28;20077;-76
2021/07/17 03:37:31;;;;;;;6.27;2.80;;;;;;;18.69;100.00;94157.41;10571508;28;20490;-76
2021/07/17 03:42:31;;;;;;;5.75;2.88;;;;;;;18.68;100.00;94155.03;10560163;28;20069;-75
2021/07/17 03:47:32;;;;;;;6.10;2.80;;;;;;;18.86;100.00;94150.94;10546940;28;20031;-76
2021/07/17 03:52:32;;;;;;;4.95;3.45;;;;;;;18.79;100.00;94151.50;10532622;28;20036;-76
2021/07/17 03:57:33;;;;;;;6.33;3.17;;;;;;;18.92;100.00;94156.97;10523816;28;20028;-75
2021/07/17 04:02:41;;;;;;;8.50;3.30;;;;;;;18.88;100.00;94159.59;10525103;28;20081;-75
2021/07/17 04:07:42;;;;;;;;;;;;;;;18.90;100.00;94161.97;10535611;28;20282;-76
2021/07/17 04:12:42;;;;;;;7.53;3.45;;;;;;;18.99;100.00;94156.41;10527915;28;19912;-75
2021/07/17 04:17:42;;;;;;;3.83;2.93;;;;;;;19.03;100.00;94154.59;10522109;28;20020;-76
2021/07/17 04:22:43;;;;;;;13.25;3.40;;;;;;;19.06;100.00;94156.63;10546684;27;20038;-76
2021/07/17 04:27:43;;;;;;;5.05;3.42;;;;;;;19.17;100.00;94157.75;10591004;27;20405;-76
2021/07/17 04:32:43;;;;;;;7.63;3.43;;;;;;;19.51;100.00;94158.41;10607970;27;20642;-77
2021/07/17 04:37:45;;;;;;;10.57;3.20;;;;;;;19.89;100.00;94159.91;10611802;27;20063;-76
2021/07/17 04:42:45;;;;;;;8.13;3.47;;;;;;;20.35;100.00;94165.06;10611980;27;20030;-76
2021/07/17 04:47:46;;;;;;;12.67;4.10;;;;;;;20.72;100.00;94158.59;10611059;27;20034;-76
2021/07/17 04:52:46;;;;;;;5.87;3.00;;;;;;;21.09;100.00;94155.59;10551186;28;20280;-77
2021/07/17 04:57:47;;;;;;;9.13;2.87;;;;;;;21.56;100.00;94154.75;10568825;28;20121;-77
2021/07/17 05:02:54;;;;;;;9.23;3.00;;;;;;;21.80;100.00;94150.94;10567816;28;20785;-76
2021/07/17 05:07:55;;;;;;;;;;;;;;;22.19;98.89;94147.41;10569219;28;20106;-76
2021/07/17 05:12:55;;;;;;;7.00;3.40;;;;;;;22.57;95.37;94137.56;10568798;28;19919;-76
2021/07/17 05:17:56;;;;;;;5.40;3.38;;;;;;;23.24;94.79;94130.84;10549829;28;20019;-76
2021/07/17 05:22:56;;;;;;;7.63;3.57;;;;;;;23.63;96.43;94127.88;10546292;28;20559;-76
2021/07/17 05:27:56;;;;;;;7.77;3.57;;;;;;;23.92;98.60;94135.69;10526428;28;20107;-76
2021/07/17 05:32:57;;;;;;;12.15;4.45;;;;;;;24.39;100.00;94135.06;10525616;28;20055;-76
2021/07/17 05:38:00;;;;;;;7.17;4.07;;;;;;;24.98;96.20;94123.47;10525295;28;20027;-76
2021/07/17 05:43:01;;;;;;;9.95;3.83;;;;;;;25.82;92.13;94124.81;10544723;28;20016;-75
2021/07/17 05:48:02;;;;;;;7.13;3.65;;;;;;;26.23;88.26;94119.06;10555657;28;20036;-75
2021/07/17 05:53:07;;;;;;;5.22;3.53;;;;;;;26.67;83.45;94129.03;10554105;28;20093;-76
2021/07/17 05:58:08;;;;;;;12.30;4.22;;;;;;;25.84;87.12;94133.44;10523827;28;20043;-76
2021/07/17 06:03:09;;;;;;;9.17;4.03;;;;;;;25.78;87.16;94129.50;10522714;28;20565;-76
2021/07/17 06:08:09;;;;;;;7.85;3.45;;;;;;;26.73;77.41;94116.44;10525333;28;20274;-76
2021/07/17 06:13:10;;;;;;;9.07;3.20;;;;;;;27.67;68.14;94110.09;10524900;28;20031;-78
2021/07/17 06:18:10;;;;;;;11.13;3.20;;;;;;;28.92;59.50;94116.22;10543911;28;20024;-76
2021/07/17 06:23:11;;;;;;;6.47;2.47;;;;;;;29.40;47.35;94109.94;10545632;27;20066;-76
2021/07/17 06:28:11;;;;;;;5.15;3.33;;;;;;;29.30;49.16;94108.84;10585139;28;20038;-76
2021/07/17 06:33:11;;;;;;;7.50;2.43;;;;;;;30.18;46.31;94098.38;10601569;27;20023;-76
2021/07/17 06:38:12;;;;;;;10.33;2.57;;;;;;;31.07;42.67;94092.81;10618614;27;20015;-76
2021/07/17 06:43:12;;;;;;;6.27;2.73;;;;;;;30.98;42.58;94089.78;10618510;27;20026;-76
2021/07/17 06:48:12;;;;;;;19.60;3.07;;;;;;;30.48;44.31;94089.31;10618252;27;20039;-76
2021/07/17 06:53:13;;;;;;;6.47;3.13;;;;;;;31.04;41.34;94088.09;10616549;27;20031;-76
2021/07/17 06:58:13;;;;;;;8.17;2.37;;;;;;;31.52;40.42;94086.06;10616979;27;20026;-76
2021/07/17 07:03:14;;;;;;;5.25;2.35;;;;;;;31.98;38.30;94078.09;10618056;27;20031;-76
2021/07/17 07:08:14;;;;;;;5.38;2.10;;;;;;;32.55;36.46;94073.31;10617624;27;20478;-76
2021/07/17 07:13:17;;;;;;;6.87;2.30;;;;;;;32.99;37.96;94073.91;10617367;27;20026;-77
2021/07/17 07:18:17;;;;;;;3.45;2.30;;;;;;;33.32;36.26;94067.56;10616834;27;20031;-77
2021/07/17 07:23:18;;;;;;;6.50;2.80;;;;;;;34.58;33.36;94064.09;10616512;27;20046;-77
2021/07/17 07:28:18;;;;;;;6.43;2.33;;;;;;;33.98;33.92;94067.41;10614503;28;20083;-77
2021/07/17 07:33:18;;;;;;;7.65;2.33;;;;;;;33.52;34.63;94061.84;10613688;28;20031;-76
2021/07/17 07:38:19;;;;;;;5.23;2.00;;;;;;;32.29;34.95;94055.63;10613664;28;20027;-77
2021/07/17 07:43:19;;;;;;;5.97;2.23;;;;;;;35.21;32.01;94070.88;10613250;27;20026;-77
2021/07/17 07:48:19;;;;;;;4.97;2.20;;;;;;;34.63;30.71;94068.31;10613471;28;20046;-77
2021/07/17 07:53:20;;;;;;;3.27;1.50;;;;;;;34.97;30.70;94066.88;10595260;27;20035;-77
2021/07/17 07:58:21;;;;;;;4.65;2.17;;;;;;;35.86;29.45;94062.31;10613158;28;20027;-77
2021/07/17 08:03:21;;;;;;;3.90;2.00;;;;;;;35.92;29.83;94055.69;10613299;28;20087;-77
2021/07/17 08:08:22;;;;;;;7.03;1.67;;;;;;;37.10;29.03;94054.44;10612871;27;20268;-77
2021/07/17 08:13:22;;;;;;;7.07;1.90;;;;;;;37.21;27.75;94057.56;10612874;28;20019;-77
2021/07/17 08:18:22;;;;;;;7.03;1.80;;;;;;;36.58;28.93;94049.25;10612787;28;20023;-77
2021/07/17 08:23:24;;;;;;;4.20;1.70;;;;;;;36.39;28.72;94047.59;10572724;27;1113785;-77
2021/07/17 08:28:24;;;;;;;6.57;1.77;;;;;;;36.20;28.48;94047.47;10614314;27;20099;-77
2021/07/17 08:33:24;;;;;;;4.47;1.93;;;;;;;36.98;27.38;94042.13;10614252;27;20087;-77
2021/07/17 08:38:25;;;;;;;5.27;1.27;;;;;;;36.66;26.85;94029.38;10613803;27;20067;-77
2021/07/17 08:43:25;;;;;;;12.20;2.93;;;;;;;37.10;26.25;94034.81;10613750;27;20023;-77
2021/07/17 08:48:25;;;;;;;6.03;1.43;;;;;;;37.26;26.17;94014.13;10613581;27;20085;-77
2021/07/17 08:53:27;;;;;;;14.00;2.20;;;;;;;37.33;25.49;94015.88;10612824;27;20908;-77
2021/07/17 08:58:27;;;;;;;4.38;1.50;;;;;;;36.81;25.99;94016.38;10613038;27;20273;-77
2021/07/17 09:03:27;;;;;;;3.33;1.37;;;;;;;35.82;26.56;94006.56;10613035;27;20019;-77
2021/07/17 09:08:28;;;;;;;9.50;1.80;;;;;;;36.03;26.70;94010.56;10612984;27;20276;-77
2021/07/17 09:13:30;;;;;;;9.57;1.70;;;;;;;35.65;26.93;93991.94;10611974;27;20031;-77
2021/07/17 09:18:33;;;;;;;4.50;2.20;;;;;;;36.57;25.99;93990.94;10612155;27;20079;-77
2021/07/17 09:23:43;;;;;;;9.30;2.17;;;;;;;37.75;24.26;94001.28;10611529;27;20043;-77
2021/07/17 09:28:54;;;;;;;7.00;1.58;;;;;;;37.56;24.19;93992.06;10611907;27;20015;-77
2021/07/17 09:34:10;;;;;;;13.25;1.90;;;;;;;37.49;24.60;94001.56;10613198;27;20097;-77
2021/07/17 09:39:15;;;;;;;7.47;1.70;;;;;;;38.30;23.76;93984.34;10611774;27;20030;-77
2021/07/17 09:44:21;;;;;;;5.40;1.50;;;;;;;37.72;24.25;93977.72;10611191;27;20160;-76
2021/07/17 09:49:24;;;;;;;10.32;1.42;;;;;;;37.44;24.39;93985.38;10611608;27;20564;-77
2021/07/17 09:54:24;;;;;;;9.60;1.67;;;;;;;37.18;24.69;93982.09;10610724;27;20084;-77
2021/07/17 09:59:24;;;;;;;3.73;1.20;;;;;;;38.09;24.03;93974.88;10611034;27;20092;-77
2021/07/17 10:04:25;;;;;;;7.43;1.53;;;;;;;37.61;24.24;93978.22;10611431;27;20045;-77
2021/07/17 10:09:31;;;;;;;5.63;1.17;;;;;;;37.50;24.05;93968.69;10610223;27;20537;-77
2021/07/17 10:14:35;;;;;;;3.15;1.30;;;;;;;39.13;23.26;93959.91;10610698;27;20023;-77
2021/07/17 10:19:37;;;;;;;2.38;1.23;;;;;;;38.75;23.00;93953.78;10610607;28;20409;-76
2021/07/17 10:24:38;;;;;;;7.07;1.60;;;;;;;38.90;22.50;93955.84;10609948;28;20057;-76
2021/07/17 10:29:40;;;;;;;8.05;1.83;;;;;;;39.36;22.25;93951.97;10610922;28;20144;-76
2021/07/17 10:34:40;;;;;;;7.53;1.40;;;;;;;40.56;22.15;93947.19;10609426;27;20062;-77
2021/07/17 10:39:45;;;;;;;7.23;1.47;;;;;;;40.21;21.72;93945.84;10609794;27;20106;-77
2021/07/17 10:44:56;;;;;;;;;;;;;;;40.63;21.17;93936.28;10610199;27;20059;-77
2021/07/17 10:49:56;;;;;;;6.57;1.33;;;;;;;41.51;20.18;93930.75;10609987;28;19959;-76
2021/07/17 10:55:22;;;;;;;7.73;1.57;;;;;;;39.80;21.69;93935.19;10609333;28;20027;-77
2021/07/17 11:00:41;;;;;;;15.90;1.77;;;;;;;39.72;22.05;93913.56;10609386;28;20408;-76
2021/07/17 11:05:41;;;;;;;12.43;1.40;;;;;;;40.04;21.94;93920.25;10609805;28;20347;-76
2021/07/17 11:10:42;;;;;;;4.13;1.40;;;;;;;37.29;24.10;93912.38;10608616;27;20031;-75
2021/07/17 11:15:46;;;;;;;4.63;1.60;;;;;;;34.13;27.50;93920.75;10608958;27;20027;-76
2021/07/17 11:20:47;;;;;;;6.85;2.05;;;;;;;32.93;29.65;93897.50;10616500;27;20034;-76
2021/07/17 11:26:10;;;;;;;3.15;1.67;;;;;;;31.92;30.41;93902.72;10616758;27;20035;-75
2021/07/17 11:31:29;;;;;;;10.30;1.73;;;;;;;31.54;30.56;93883.69;10616822;27;20022;-75
2021/07/17 11:36:29;;;;;;;5.38;1.73;;;;;;;31.31;30.95;93893.69;10616383;27;20109;-75
2021/07/17 11:41:30;;;;;;;5.10;1.97;;;;;;;31.29;31.21;93884.22;10616186;27;20032;-75
2021/07/17 11:46:30;;;;;;;8.57;2.03;;;;;;;31.48;30.35;93866.75;10616067;27;20280;-75
2021/07/17 11:51:47;;;;;;;6.15;1.90;;;;;;;31.19;30.01;93874.91;10614048;27;20039;-76
2021/07/17 11:57:20;;;;;;;5.87;2.00;;;;;;;31.23;29.90;93883.94;10611364;27;20131;-76
2021/07/17 12:02:22;;;;;;;6.13;2.17;;;;;;;31.34;29.57;93867.84;10613187;27;20038;-77
2021/07/17 12:07:28;;;;;;;8.00;1.55;;;;;;;31.52;30.01;93880.56;10613887;27;20016;-77
2021/07/17 12:12:31;;;;;;;2.88;1.95;;;;;;;31.25;29.98;93864.88;10614908;27;20043;-77
2021/07/17 12:17:32;;;;;;;3.22;1.90;;;;;;;31.58;31.60;93853.06;10614758;27;20031;-76
2021/07/17 12:22:34;;;;;;;8.98;2.80;;;;;;;31.94;35.04;93849.50;10615091;27;20106;-77
2021/07/17 12:27:58;;;;;;;5.25;2.75;;;;;;;31.86;34.79;93863.56;10613136;27;20119;-77
2021/07/17 12:33:18;;;;;;;7.68;2.72;;;;;;;31.71;35.25;93853.22;10613573;27;20031;-77
2021/07/17 12:38:29;;;;;;;8.00;3.13;;;;;;;31.52;36.83;93850.81;10613787;27;20102;-77
2021/07/17 12:43:40;;;;;;;6.78;3.03;;;;;;;31.56;37.19;93844.38;10613697;27;20142;-77
2021/07/17 12:48:45;;;;;;;5.60;2.85;;;;;;;31.20;37.47;93848.69;10617867;27;20035;-76
2021/07/17 12:53:46;;;;;;;6.03;2.92;;;;;;;31.26;37.87;93835.09;10613573;27;20028;-77
2021/07/17 12:58:47;;;;;;;8.40;2.90;;;;;;;31.50;36.15;93833.78;10613410;27;20898;-77
2021/07/17 13:03:47;;;;;;;7.40;3.43;;;;;;;31.57;38.36;93832.06;10613213;27;20131;-77
2021/07/17 13:08:59;;;;;;;6.93;3.58;;;;;;;31.09;39.89;93835.06;10612287;27;20494;-76
2021/07/17 13:14:02;;;;;;;6.82;3.05;;;;;;;30.63;40.91;93825.63;10612698;27;20034;-77
2021/07/17 13:19:07;;;;;;;8.82;3.33;;;;;;;30.63;40.70;93818.09;10612552;27;20450;-77
2021/07/17 13:24:10;;;;;;;10.43;3.92;;;;;;;30.58;40.84;93817.81;10612338;27;20043;-77
2021/07/17 13:29:28;;;;;;;6.55;4.10;;;;;;;30.82;40.71;93810.19;10628116;27;20100;-76
2021/07/17 13:34:35;;;;;;;7.00;3.30;;;;;;;30.90;39.91;93808.06;10612387;27;20035;-77
2021/07/17 13:39:52;;;;;;;7.13;3.42;;;;;;;30.72;40.18;93792.56;10611068;27;20031;-76
2021/07/17 13:45:06;;;;;;;9.30;3.28;;;;;;;30.67;41.23;93791.06;10612117;27;20164;-76
2021/07/17 13:50:19;;;;;;;9.75;3.00;;;;;;;30.83;40.70;93797.91;10611093;27;20481;-76
2021/07/17 13:55:33;;;;;;;12.82;3.28;;;;;;;30.89;41.11;93798.19;10610913;27;20077;-77
2021/07/17 14:00:41;;;;;;;5.25;2.80;;;;;;;30.92;41.04;93798.09;10610981;27;20037;-77
2021/07/17 14:05:43;;;;;;;9.50;3.03;;;;;;;30.91;41.48;93788.22;10610369;27;20061;-77
2021/07/17 14:10:43;;;;;;;9.63;3.00;;;;;;;30.74;42.70;93792.94;10610490;27;20103;-77
2021/07/17 14:15:44;;;;;;;6.80;3.40;;;;;;;30.92;41.63;93781.44;10611031;27;20027;-77
2021/07/17 14:20:45;;;;;;;12.13;3.95;;;;;;;31.18;41.43;93779.75;10609848;27;20038;-77
2021/07/17 14:25:46;;;;;;;8.52;2.50;;;;;;;31.04;41.13;93777.28;10610449;28;20039;-77
2021/07/17 14:30:47;;;;;;;4.32;3.40;;;;;;;31.02;41.32;93760.25;10610744;28;20032;-77
2021/07/17 14:35:47;;;;;;;13.02;3.10;;;;;;;30.90;41.35;93753.38;10609355;27;20478;-77
2021/07/17 14:40:48;;;;;;;5.33;3.17;;;;;;;30.83;41.34;93756.28;10609759;27;20058;-77
2021/07/17 14:45:49;;;;;;;3.60;2.42;;;;;;;30.78;41.10;93752.00;10610738;28;20023;-77
2021/07/17 14:50:49;;;;;;;11.38;2.90;;;;;;;30.72;41.65;93745.41;10609891;27;20031;-77
2021/07/17 14:55:50;;;;;;;5.60;2.88;;;;;;;30.70;42.50;93741.50;10617722;27;20379;-77
2021/07/17 15:00:50;;;;;;;9.97;3.40;;;;;;;30.72;42.16;93741.88;10618243;27;20033;-77
2021/07/17 15:05:51;;;;;;;6.40;3.90;;;;;;;30.83;43.60;93736.88;10618349;27;20035;-77
2021/07/17 15:10:52;;;;;;;15.13;3.30;;;;;;;30.81;43.60;93733.72;10617596;27;20063;-77
2021/07/17 15:15:53;;;;;;;16.27;4.00;;;;;;;30.64;44.26;93739.25;10617528;27;20075;-77
2021/07/17 15:20:55;;;;;;;8.05;3.97;;;;;;;30.58;44.94;93752.03;10617278;27;20499;-77
2021/07/17 15:25:56;;;;;;;4.15;3.25;;;;;;;30.40;45.72;93744.03;10616880;27;20589;-77
2021/07/17 15:30:56;;;;;;;13.05;3.78;;;;;;;30.20;46.02;93740.44;10616975;27;20034;-77
2021/07/17 15:35:56;;;;;;;6.20;2.92;;;;;;;30.23;44.87;93731.31;10616613;27;20034;-77
2021/07/17 15:40:57;;;;;;;7.13;3.37;;;;;;;30.07;44.79;93731.97;10616623;27;20895;-77
2021/07/17 15:45:57;;;;;;;4.63;2.80;;;;;;;30.03;44.32;93734.03;10598309;27;20035;-77
2021/07/17 15:50:58;;;;;;;7.30;3.78;;;;;;;30.16;44.45;93733.00;10616455;27;20818;-77
2021/07/17 15:55:59;;;;;;;5.55;2.78;;;;;;;30.30;45.10;93736.72;10615745;27;20031;-77
2021/07/17 16:00:59;;;;;;;12.10;3.10;;;;;;;30.11;46.03;93738.25;10615949;27;20035;-77
2021/07/17 16:05:59;;;;;;;7.77;3.80;;;;;;;29.93;47.24;93739.34;10615465;27;20031;-77
2021/07/17 16:11:00;;;;;;;7.87;4.37;;;;;;;29.80;46.57;93728.06;10614926;27;20492;-77
2021/07/17 16:16:00;;;;;;;9.65;3.35;;;;;;;29.67;46.42;93740.94;10614716;27;20032;-77
2021/07/17 16:21:01;;;;;;;7.55;3.17;;;;;;;29.69;47.26;93738.53;10615562;27;20500;-77
2021/07/17 16:26:02;;;;;;;6.85;2.55;;;;;;;29.58;43.70;93735.94;10613865;27;20050;-77
2021/07/17 16:31:02;;;;;;;6.25;3.10;;;;;;;29.43;42.30;93735.41;10614638;27;20031;-77
2021/07/17 16:36:03;;;;;;;10.10;2.85;;;;;;;29.27;42.25;93735.25;10614464;27;20072;-77
2021/07/17 16:41:03;;;;;;;3.47;2.10;;;;;;;29.24;42.21;93744.38;10629813;27;20038;-77
2021/07/17 16:46:03;;;;;;;8.87;2.50;;;;;;;28.98;43.13;93732.84;10613915;27;20030;-76
2021/07/17 16:51:04;;;;;;;5.18;2.10;;;;;;;28.92;43.56;93742.81;10613941;27;20693;-76
2021/07/17 16:56:05;;;;;;;10.25;3.17;;;;;;;28.88;44.19;93750.38;10613237;27;20031;-76
2021/07/17 17:01:05;;;;;;;7.38;2.50;;;;;;;28.85;44.30;93752.00;10612568;27;20826;-77
2021/07/17 17:06:06;;;;;;;6.05;2.53;;;;;;;28.77;44.70;93751.31;10612693;27;20375;-77
2021/07/17 17:11:06;;;;;;;9.70;3.58;;;;;;;28.69;45.74;93758.13;10612321;27;20038;-77
2021/07/17 17:16:07;;;;;;;13.47;2.90;;;;;;;28.62;46.51;93766.47;10611200;27;20027;-77
2021/07/17 17:21:07;;;;;;;5.65;2.78;;;;;;;28.53;46.58;93782.78;10612430;27;20096;-77
2021/07/17 17:26:08;;;;;;;9.00;2.73;;;;;;;28.41;46.92;93784.88;10612279;27;20387;-76
2021/07/17 17:31:08;;;;;;;4.97;2.77;;;;;;;28.28;48.03;93781.84;10611470;27;20080;-76
2021/07/17 17:36:10;;;;;;;6.20;2.85;;;;;;;28.33;47.62;93777.88;10611766;27;20038;-77
2021/07/17 17:41:10;;;;;;;4.90;3.17;;;;;;;28.22;48.00;93791.00;10611914;27;20042;-77
2021/07/17 17:46:10;;;;;;;7.70;2.67;;;;;;;28.14;48.05;93793.03;10611563;27;20037;-77
2021/07/17 17:51:11;;;;;;;8.57;2.57;;;;;;;28.00;48.09;93793.97;10613374;27;20482;-77
2021/07/17 17:56:11;;;;;;;6.78;2.97;;;;;;;27.74;47.60;93804.41;10614022;27;20019;-77
2021/07/17 18:01:12;;;;;;;8.47;3.00;;;;;;;27.62;47.69;93804.91;10612929;27;20508;-77
2021/07/17 18:06:12;;;;;;;7.53;2.57;;;;;;;27.68;47.24;93808.00;10611380;27;20272;-76
2021/07/17 18:11:14;;;;;;;8.98;2.80;;;;;;;27.58;47.09;93815.19;10615697;27;20059;-77
2021/07/17 18:16:14;;;;;;;9.88;3.53;;;;;;;27.45;46.97;93818.41;10612058;27;20034;-77
2021/07/17 18:21:15;;;;;;;5.57;2.87;;;;;;;27.30;47.23;93822.41;10612128;28;20703;-77
2021/07/17 18:26:16;;;;;;;5.17;2.83;;;;;;;27.23;46.64;93827.97;10614016;27;20295;-76
2021/07/17 18:31:18;;;;;;;5.15;2.33;;;;;;;27.12;46.69;93837.09;10620477;27;20431;-77
2021/07/17 18:36:20;;;;;;;7.55;2.53;;;;;;;27.12;46.63;93836.31;10620267;27;20043;-76
2021/07/17 18:41:21;;;;;;;5.57;2.45;;;;;;;27.14;46.52;93849.69;10621225;27;20110;-77
2021/07/17 18:46:21;;;;;;;6.53;2.42;;;;;;;27.15;45.96;93848.50;10620659;27;20037;-77
2021/07/17 18:51:22;;;;;;;6.07;2.97;;;;;;;27.09;46.26;93851.69;10619329;27;20035;-77
2021/07/17 18:56:22;;;;;;;7.05;3.17;;;;;;;26.95;46.71;93851.75;10618074;27;20031;-77
2021/07/17 19:01:23;;;;;;;8.23;2.90;;;;;;;26.89;47.33;93843.13;10618141;27;20131;-76
2021/07/17 19:06:23;;;;;;;8.85;2.80;;;;;;;26.85;48.18;93847.06;10617516;27;20019;-76
2021/07/17 19:11:24;;;;;;;7.67;2.67;;;;;;;26.74;48.61;93847.09;10618074;27;20055;-76
2021/07/17 19:16:26;;;;;;;9.90;2.57;;;;;;;26.71;49.01;93853.41;10617387;27;20038;-76
2021/07/17 19:21:27;;;;;;;7.47;2.47;;;;;;;26.70;49.41;93858.13;10632812;27;20379;-76
2021/07/17 19:26:27;;;;;;;8.67;2.83;;;;;;;26.55;50.28;93848.31;10616797;27;20077;-77
2021/07/17 19:31:28;;;;;;;5.00;2.28;;;;;;;26.46;51.02;93851.47;10617366;27;20363;-77
2021/07/17 19:36:28;;;;;;;4.00;2.50;;;;;;;26.36;50.95;93861.34;10615730;27;20080;-76
2021/07/17 19:41:29;;;;;;;3.42;2.28;;;;;;;26.22;52.12;93858.59;10616205;27;20022;-76
2021/07/17 19:46:29;;;;;;;4.47;2.30;;;;;;;26.21;52.08;93859.78;10616641;27;20466;-76
2021/07/17 19:51:30;;;;;;;6.57;2.97;;;;;;;26.12;52.49;93868.44;10615646;27;20031;-76
2021/07/17 19:56:30;;;;;;;4.00;2.13;;;;;;;26.10;52.50;93866.06;10615436;27;20055;-76
2021/07/17 20:01:31;;;;;;;6.17;2.37;;;;;;;25.97;52.73;93881.41;10615476;27;20054;-76
2021/07/17 20:06:31;;;;;;;7.53;2.63;;;;;;;25.96;52.74;93882.56;10615607;27;20355;-77
2021/07/17 20:11:32;;;;;;;3.00;2.30;;;;;;;25.90;52.57;93890.44;10615252;27;20374;-77
2021/07/17 20:16:32;;;;;;;5.47;2.40;;;;;;;25.90;52.21;93882.19;10615285;27;20462;-76
2021/07/17 20:21:33;;;;;;;7.83;3.00;;;;;;;25.68;52.90;93881.38;10615204;27;20371;-76
2021/07/17 20:26:34;;;;;;;10.70;3.87;;;;;;;25.58;53.33;93873.91;10614078;27;20329;-76
2021/07/17 20:31:35;;;;;;;4.68;2.88;;;;;;;25.42;54.80;93869.53;10614375;27;20030;-76
2021/07/17 20:36:35;;;;;;;3.80;2.63;;;;;;;25.30;55.95;93872.63;10614170;27;20038;-75
2021/07/17 20:41:36;;;;;;;6.75;2.67;;;;;;;25.23;56.68;93873.38;10613381;27;20031;-76
2021/07/17 20:46:36;;;;;;;10.38;3.15;;;;;;;25.21;57.16;93880.44;10629439;27;20031;-76
2021/07/17 20:51:37;;;;;;;8.83;3.30;;;;;;;25.23;57.59;93887.13;10614387;27;20039;-76
2021/07/17 20:56:37;;;;;;;7.38;3.10;;;;;;;25.24;58.21;93882.41;10615505;27;20341;-76
2021/07/17 21:01:38;;;;;;;11.27;2.93;;;;;;;25.16;59.07;93897.31;10615246;27;20031;-76
2021/07/17 21:06:38;;;;;;;4.67;2.80;;;;;;;25.10;60.22;93907.91;10615155;27;20272;-76
2021/07/17 21:11:38;;;;;;;5.68;3.05;;;;;;;24.99;61.50;93904.31;10630841;27;20774;-76
2021/07/17 21:16:39;;;;;;;8.67;3.10;;;;;;;24.87;63.30;93902.72;10614688;27;20027;-76
2021/07/17 21:21:40;;;;;;;7.18;3.33;;;;;;;24.85;64.53;93905.84;10614911;27;20194;-76
2021/07/17 21:26:40;;;;;;;5.93;3.60;;;;;;;24.88;65.17;93909.75;10579667;27;20044;-76
2021/07/17 21:31:41;;;;;;;11.80;3.30;;;;;;;24.81;65.76;93912.47;10571728;28;20478;-76
2021/07/17 21:36:41;;;;;;;13.90;3.80;;;;;;;24.74;66.65;93919.53;10571975;28;20588;-76
2021/07/17 21:41:41;;;;;;;6.37;4.10;;;;;;;24.75;66.97;93925.78;10571785;28;20032;-76
2021/07/17 21:46:42;;;;;;;17.03;5.20;;;;;;;24.63;67.60;93915.94;10570614;28;20513;-76
2021/07/17 21:51:42;;;;;;;7.50;3.40;;;;;;;24.49;68.72;93915.78;10568344;28;20114;-76
2021/07/17 21:56:43;;;;;;;7.17;3.80;;;;;;;24.44;69.49;93922.44;10549237;28;20577;-76
2021/07/17 22:01:43;;;;;;;16.13;4.83;;;;;;;24.37;70.15;93914.94;10547530;28;20464;-76
2021/07/17 22:06:44;;;;;;;10.02;3.55;;;;;;;24.27;71.12;93914.88;10566201;28;20394;-76
2021/07/17 22:11:44;;;;;;;5.30;2.97;;;;;;;24.12;71.48;93913.97;10566683;28;20032;-77
2021/07/17 22:16:44;;;;;;;10.10;4.07;;;;;;;24.05;73.11;93907.25;10566492;28;20028;-77
2021/07/17 22:21:45;;;;;;;9.60;3.80;;;;;;;23.83;75.72;93914.50;10566035;28;20038;-77
2021/07/17 22:26:45;;;;;;;8.37;3.40;;;;;;;23.75;77.11;93901.06;10601024;28;20051;-76
2021/07/17 22:31:48;;;;;;;9.33;4.10;;;;;;;23.65;77.81;93908.84;10608423;27;20027;-77
2021/07/17 22:36:49;;;;;;;4.85;3.20;;;;;;;23.66;78.01;93909.59;10608330;28;20324;-77
2021/07/17 22:41:49;;;;;;;5.93;3.03;;;;;;;23.69;77.80;93895.94;10608911;27;20161;-76
2021/07/17 22:46:49;;;;;;;7.67;3.80;;;;;;;23.63;78.58;93893.91;10608088;28;20466;-76
2021/07/17 22:51:50;;;;;;;7.50;3.53;;;;;;;23.53;80.29;93884.41;10608368;28;20079;-76
2021/07/17 22:56:50;;;;;;;5.53;3.67;;;;;;;23.48;81.22;93879.25;10608081;27;20053;-76
2021/07/17 23:01:50;;;;;;;5.50;3.40;;;;;;;23.43;82.36;93890.56;10589668;28;20421;-76
2021/07/17 23:06:51;;;;;;;12.87;3.47;;;;;;;23.38;82.93;93884.25;10607944;27;20023;-76
2021/07/17 23:11:51;;;;;;;8.73;3.67;;;;;;;23.22;85.43;93889.19;10589693;27;20037;-76
2021/07/17 23:16:52;;;;;;;9.33;3.70;;;;;;;23.09;87.50;93896.03;10615766;27;20039;-76